Webcam Meteoipassi more information Webcam Meteoipassi


Pisa torre orologio more information Pisa torre orologio


altri nostri siti meteo:

Pomeziameteo 1Sito sul meteo

Pomeziameteo DashboardSito sul meteo

Caput FrigorisSito sul meteo

BarcellonameteoSito sul meteo

MeteoipassiSito sul meteo

ViterbometeoSito sul meteo

MeteotortoretoSito sul meteo

TortoretometeolidoSito sul meteo

MeteoGonzagaSito sul meteo



Vento Inizio validita dal: 07-07-2020 08:00 Fino: 18:59 Allerta per: Vento Livello: Giallo info button

Report METAR

   
LIRQ - Firenze
Dati ricevuti: Jul 7 2020 4:50 pm
Sereno  
Sereno  
   Vento: NE 18.5 km/h
Vento: NE 18.5 km/h
Temperatura: 27°C
Indice di Calore: 27°C
P.to Rugiada: 14°C
Umidita: 45%
Barometro: 1013 hPa
Visibilita: oltre 10 km
dettagli cloud: Sereno
LIRQ 071450Z 03010KT 340V070 CAVOK 27/14 Q1013
LIRP - Lucca
Dati ricevuti: Jul 7 2020 4:45 pm
Sereno  
Sereno  
   Vento: SE 27.8 km/h
Vento: SE 27.8 km/h
Temperatura: 28°C
Indice di Calore: 28°C
P.to Rugiada: 15°C
Umidita: 45%
Barometro: 1012 hPa
Visibilita: oltre 10 km
dettagli cloud: Sereno
LIRP 071445Z 11015KT CAVOK 28/15 Q1012 NOSIG
LIRP - Livorno
Dati ricevuti: Jul 7 2020 4:45 pm
Sereno  
Sereno  
   Vento: SE 27.8 km/h
Vento: SE 27.8 km/h
Temperatura: 28°C
Indice di Calore: 28°C
P.to Rugiada: 15°C
Umidita: 45%
Barometro: 1012 hPa
Visibilita: oltre 10 km
dettagli cloud: Sereno
LIRP 071445Z 11015KT CAVOK 28/15 Q1012 NOSIG
LIMP - Parma
Dati ricevuti: Jul 7 2020 4:50 pm
Poche nuvole  
Poche nuvole  
   Vento: SE 16.7 km/h
Vento: SE 16.7 km/h
Temperatura: 26°C
P.to Rugiada: 13°C
Umidita: 45%
Barometro: 1016 hPa
Nuvole: Poche nuvole
Visibilita: oltre 10 km
dettagli cloud: Poche nuvole 1219.2 m
LIMP 071450Z 12009KT 070V180 9999 FEW040 26/13 Q1016
LIRF - Roma
Dati ricevuti: Jul 7 2020 4:50 pm
Sereno  
Sereno  
   Vento: West 16.7 km/h
Vento: West 16.7 km/h
Temperatura: 28°C
Indice di Calore: 30°C
P.to Rugiada: 21°C
Umidita: 66%
Barometro: 1010 hPa
Visibilita: oltre 10 km
dettagli cloud: Sereno
LIRF 071450Z 26009KT 220V290 CAVOK 28/21 Q1010 NOSIG
 

Script sviluppato da  Saratoga-weather.org Adattato per il modello da  Weerstation Leuven

Potete trovare le nostre info meteo anche a:

European Weather Network

Weather Underground

AWEKAS

HAMweather, WeatherForYou, PWS Weather

Strumentazione usata:

Stazione meteo
Oregon Scientific WMR88

Programma gestore dati meteo
WVIEW

Server per i dati meteo
WDS-5

Provider
Anemos WDS-5

Oregon Scientific WMR88

WVIEW

WDS-5

Anemos WDS-5